Site Report
Select Start Month: Select End Month:
Port Orchard to Southworth (Dec 30, 2012 - Jan 01, 2013)
Port Orchard to Southworth (WAKSPOSW) Manchester, WA (USA) Lat,Long: 47.45781,-122.25586 Map Elevation: 10 feet 52 species 1 trip (0 non-trip sightings)
The 13-mile Yukon Do It Marathon course from Port Orchard northeast on Beach Drive E to Manchester, continuing south on Colchester Dr SE and east on Southworth Dr SE to Harper, with a side trip through Manchester State Park. Habitat is rural residential with coniferous and mixed forest, a few small fields, lots of saltwater bay and one freshwater pond.
Species Sightings Trips First Date Last Date Avg/Sighting Avg/Trip Max Ct
Canada Goose 1   1 12/31/2012 12/31/2012 25.0 25.0 25
Eurasian Wigeon 1   1 12/31/2012 12/31/2012 3.0 3.0 3
American Wigeon 1   1 12/31/2012 12/31/2012 1200.0 1200.0 1200
Mallard 1   1 12/31/2012 12/31/2012 20.0 20.0 20
Green-winged Teal 1   1 12/31/2012 12/31/2012 2.0 2.0 2
Greater Scaup 1   1 12/31/2012 12/31/2012 35.0 35.0 35
Harlequin Duck 1   1 12/31/2012 12/31/2012 10.0 10.0 10
Surf Scoter 1   1 12/31/2012 12/31/2012 70.0 70.0 70
White-winged Scoter 1   1 12/31/2012 12/31/2012 40.0 40.0 40
Black Scoter 1   1 12/31/2012 12/31/2012 2.0 2.0 2
Bufflehead 1   1 12/31/2012 12/31/2012 100.0 100.0 100
Common Goldeneye 1   1 12/31/2012 12/31/2012 40.0 40.0 40
Barrow's Goldeneye 1   1 12/31/2012 12/31/2012 30.0 30.0 30
Hooded Merganser 1   1 12/31/2012 12/31/2012 14.0 14.0 14
Red-breasted Merganser 1   1 12/31/2012 12/31/2012 90.0 90.0 90
Red-throated Loon 1   1 12/31/2012 12/31/2012 1.0 1.0 1
Horned Grebe 1   1 12/31/2012 12/31/2012 30.0 30.0 30
Red-necked Grebe 1   1 12/31/2012 12/31/2012 1.0 1.0 1
Brandt's Cormorant 1   1 12/31/2012 12/31/2012 100.0 100.0 100
Double-crested Cormorant 1   1 12/31/2012 12/31/2012 20.0 20.0 20
Pelagic Cormorant 1   1 12/31/2012 12/31/2012 2.0 2.0 2
Bald Eagle 1   1 12/31/2012 12/31/2012 2.0 2.0 2
American Coot 1   1 12/31/2012 12/31/2012 1.0 1.0 1
Black Turnstone 1   1 12/31/2012 12/31/2012 4.0 4.0 4
Mew Gull 1   1 12/31/2012 12/31/2012 100.0 100.0 100
Thayer's Gull 1   1 12/31/2012 12/31/2012 1.0 1.0 1
Glaucous-winged Gull 1   1 12/31/2012 12/31/2012 75.0 75.0 75
Rock Pigeon 1   1 12/31/2012 12/31/2012 25.0 25.0 25
Anna's Hummingbird 1   1 12/31/2012 12/31/2012 3.0 3.0 3
Belted Kingfisher 1   1 12/31/2012 12/31/2012 3.0 3.0 3
Downy Woodpecker 1   1 12/31/2012 12/31/2012 2.0 2.0 2
Northern Flicker 1   1 12/31/2012 12/31/2012 3.0 3.0 3
Pileated Woodpecker 1   1 12/31/2012 12/31/2012 2.0 2.0 2
Steller's Jay 1   1 12/31/2012 12/31/2012 4.0 4.0 4
American Crow 1   1 12/31/2012 12/31/2012 70.0 70.0 70
Black-capped Chickadee 1   1 12/31/2012 12/31/2012 6.0 6.0 6
Chestnut-backed Chickadee 1   1 12/31/2012 12/31/2012 10.0 10.0 10
Red-breasted Nuthatch 1   1 12/31/2012 12/31/2012 2.0 2.0 2
Bewick's Wren 1   1 12/31/2012 12/31/2012 2.0 2.0 2
Pacific Wren 1   1 12/31/2012 12/31/2012 8.0 8.0 8
Golden-crowned Kinglet 1   1 12/31/2012 12/31/2012 10.0 10.0 10
Ruby-crowned Kinglet 1   1 12/31/2012 12/31/2012 5.0 5.0 5
American Robin 1   1 12/31/2012 12/31/2012 30.0 30.0 30
European Starling 1   1 12/31/2012 12/31/2012 23.0 23.0 23
Spotted Towhee 1   1 12/31/2012 12/31/2012 5.0 5.0 5
Fox Sparrow 1   1 12/31/2012 12/31/2012 1.0 1.0 1
Song Sparrow 1   1 12/31/2012 12/31/2012 10.0 10.0 10
Dark-eyed Junco 1   1 12/31/2012 12/31/2012 5.0 5.0 5
Red-winged Blackbird 1   1 12/31/2012 12/31/2012 1.0 1.0 1
House Finch 1   1 12/31/2012 12/31/2012 20.0 20.0 20
Red Crossbill 1   1 12/31/2012 12/31/2012 15.0 15.0 15
Pine Siskin 1   1 12/31/2012 12/31/2012 100.0 100.0 100
Home